Time;durP1;ratioP1;P1;durP2;ratioP2;P2;SDS_P1;SDS_P2;PMS_P1;PMS_P2;Temp;Humidity;BMP_temperature;BMP_pressure;BME280_temperature;BME280_humidity;BME280_pressure;Samples;Min_cycle;Max_cycle;Signal;HPM_P1;HPM_P2
2022/06/02 00:00:12;;;;;;;3.90;3.80;;;;;;;8.86;96.72;101451.19;6005033;23;20046;-75
2022/06/02 00:03:04;;;;;;;4.20;4.00;;;;;;;8.41;96.95;101381.13;6006528;23;20098;-71
2022/06/02 00:06:02;;;;;;;3.92;3.80;;;;;;;8.78;97.06;101451.47;5983981;23;20035;-74
2022/06/02 00:08:50;;;;;;;3.92;3.75;;;;;;;8.72;96.78;101457.75;6051011;23;20058;-70
2022/06/02 00:11:22;;;;;;;4.20;4.00;;;;;;;8.48;97.86;101433.25;6000155;23;20027;-71
2022/06/02 00:14:10;;;;;;;4.10;3.90;;;;;;;7.46;98.28;101275.19;5970786;23;20087;-71
2022/06/02 00:16:58;;;;;;;4.20;4.00;;;;;;;8.47;98.89;101468.13;6031438;23;20106;-71
2022/06/02 00:19:38;;;;;;;4.10;3.90;;;;;;;8.39;99.43;101462.25;6030967;23;20039;-71
2022/06/02 00:22:26;;;;;;;5.47;5.28;;;;;;;8.23;99.58;101446.16;6023352;23;20475;-74
2022/06/02 00:25:07;;;;;;;5.15;4.85;;;;;;;8.26;100.00;101466.13;5994362;23;20079;-75
2022/06/02 00:27:51;;;;;;;4.18;3.97;;;;;;;8.18;100.00;101466.38;6034766;23;20033;-70
2022/06/02 00:31:08;;;;;;;4.40;4.20;;;;;;;8.15;100.00;101463.84;5964103;23;20051;-72
2022/06/02 00:33:46;;;;;;;4.85;4.65;;;;;;;8.11;100.00;101467.47;5939652;23;20032;-72
2022/06/02 00:36:41;;;;;;;5.00;4.80;;;;;;;7.92;100.00;101431.41;5997382;23;20182;-70
2022/06/02 00:39:10;;;;;;;5.85;5.60;;;;;;;8.11;100.00;101463.06;6017694;23;20107;-70
2022/06/02 00:42:04;;;;;;;4.00;3.80;;;;;;;8.10;100.00;101471.00;5994393;23;20082;-71
2022/06/02 00:44:40;;;;;;;4.22;4.03;;;;;;;7.03;100.00;101324.22;6020186;23;20070;-73
2022/06/02 00:47:29;;;;;;;5.45;5.25;;;;;;;7.96;100.00;101480.06;5987528;23;20023;-72
2022/06/02 00:50:34;;;;;;;4.43;4.22;;;;;;;7.86;100.00;101473.41;6022616;23;20296;-71
2022/06/02 00:53:21;;;;;;;5.80;5.55;;;;;;;7.88;100.00;101476.81;5989257;23;20157;-71
2022/06/02 00:59:00;;;;;;;5.57;5.35;;;;;;;7.77;100.00;101481.50;5992562;23;20026;-73
2022/06/02 01:01:32;;;;;;;4.05;3.85;;;;;;;7.71;100.00;101477.28;6025473;23;20025;-71
2022/06/02 01:04:09;;;;;;;5.22;5.03;;;;;;;7.66;100.00;101493.97;5994239;23;20011;-70
2022/06/02 01:06:42;;;;;;;4.00;3.80;;;;;;;7.46;100.00;101456.22;6022740;23;20092;-71
2022/06/02 01:09:21;;;;;;;5.95;5.65;;;;;;;7.58;100.00;101494.22;6017151;23;20078;-70
2022/06/02 01:12:15;;;;;;;4.00;3.80;;;;;;;7.53;100.00;101502.16;6021137;23;20019;-72
2022/06/02 01:15:02;;;;;;;3.78;3.67;;;;;;;7.50;100.00;101497.03;5996152;23;20029;-73
2022/06/02 01:17:47;;;;;;;4.07;3.88;;;;;;;7.47;100.00;101498.84;6015137;23;20054;-70
2022/06/02 01:20:42;;;;;;;3.70;3.60;;;;;;;7.43;100.00;101502.44;5995206;23;20027;-71
2022/06/02 01:23:47;;;;;;;5.60;5.35;;;;;;;7.38;100.00;101510.41;6023106;23;20029;-70
2022/06/02 01:26:45;;;;;;;3.70;3.60;;;;;;;7.35;100.00;101508.72;6000153;23;20016;-71
2022/06/02 01:29:30;;;;;;;4.68;4.47;;;;;;;7.31;100.00;101512.28;6017884;23;20015;-72
2022/06/02 01:32:10;;;;;;;5.70;5.45;;;;;;;6.76;100.00;101431.03;5975087;23;20335;-70
2022/06/02 01:35:03;;;;;;;4.10;3.90;;;;;;;7.06;100.00;101492.94;6009663;23;20539;-72
2022/06/02 01:37:50;;;;;;;4.10;3.90;;;;;;;7.08;100.00;101499.84;6001980;23;20093;-73
2022/06/02 01:40:32;;;;;;;4.60;4.40;;;;;;;7.09;100.00;101516.34;6026452;23;20277;-70
2022/06/02 01:43:22;;;;;;;5.53;5.28;;;;;;;7.04;100.00;101526.91;6050722;23;20022;-72
2022/06/02 01:46:06;;;;;;;3.72;3.63;;;;;;;6.72;100.00;101472.91;6001175;23;20015;-71
2022/06/02 01:48:36;;;;;;;3.80;3.70;;;;;;;7.01;100.00;101519.13;6040071;23;20018;-72
2022/06/02 01:51:12;;;;;;;5.65;5.43;;;;;;;6.96;100.00;101519.25;6031814;23;20101;-72
2022/06/02 01:53:53;;;;;;;3.95;3.75;;;;;;;6.75;100.00;101488.44;6051040;23;20033;-73
2022/06/02 01:56:59;;;;;;;3.70;3.60;;;;;;;6.87;100.00;101510.78;6008715;23;20464;-71
2022/06/02 01:59:45;;;;;;;4.18;3.97;;;;;;;6.85;100.00;101507.34;6012817;23;20535;-73
2022/06/02 02:02:42;;;;;;;5.30;5.10;;;;;;;6.83;100.00;101506.53;6051242;23;20401;-71
2022/06/02 02:05:27;;;;;;;6.05;5.75;;;;;;;6.81;100.00;101506.56;6018830;23;20027;-73
2022/06/02 02:08:17;;;;;;;4.10;3.90;;;;;;;6.81;100.00;101517.00;6060137;23;20018;-72
2022/06/02 02:10:59;;;;;;;3.83;3.70;;;;;;;6.54;100.00;101471.56;6022945;23;20025;-71
2022/06/02 02:14:00;;;;;;;3.85;3.72;;;;;;;6.82;100.00;101515.28;6038490;23;20018;-74
2022/06/02 02:16:48;;;;;;;3.70;3.60;;;;;;;6.81;100.00;101514.41;6039948;23;20035;-71
2022/06/02 02:19:24;;;;;;;4.05;3.88;;;;;;;6.79;100.00;101519.69;6044072;23;20740;-72
2022/06/02 02:22:09;;;;;;;3.92;3.72;;;;;;;6.80;100.00;101549.22;6020871;23;20220;-74
2022/06/02 02:25:01;;;;;;;3.80;3.70;;;;;;;6.79;100.00;101521.41;6055262;23;20105;-73
2022/06/02 02:28:02;;;;;;;3.97;3.78;;;;;;;6.79;100.00;101522.28;6023785;23;20277;-73
2022/06/02 02:30:23;;;;;;;4.10;3.90;;;;;;;6.63;100.00;101504.41;6050049;23;20015;-71
2022/06/02 02:33:02;;;;;;;4.78;4.50;;;;;;;6.72;100.00;101520.69;6027285;23;20045;-72
2022/06/02 02:35:54;;;;;;;3.80;3.70;;;;;;;6.74;100.00;101534.56;6007036;23;20046;-73
2022/06/02 02:38:42;;;;;;;3.70;3.60;;;;;;;6.74;100.00;101529.34;5967804;23;20036;-71
2022/06/02 02:41:27;;;;;;;5.57;5.35;;;;;;;6.70;100.00;101530.31;6024461;23;20023;-73
2022/06/02 02:44:05;;;;;;;4.05;3.85;;;;;;;6.49;100.00;101499.50;5998168;23;20448;-74
2022/06/02 02:46:46;;;;;;;3.83;3.72;;;;;;;6.66;100.00;101546.91;6007103;23;20015;-73
2022/06/02 02:49:28;;;;;;;5.15;4.95;;;;;;;6.31;100.00;101475.53;6005321;23;20031;-71
2022/06/02 02:52:02;;;;;;;4.18;3.97;;;;;;;6.32;100.00;101477.25;6021699;23;20014;-74
2022/06/02 02:54:43;;;;;;;3.75;3.65;;;;;;;6.62;100.00;101528.78;5998213;23;20039;-71
2022/06/02 02:57:23;;;;;;;5.30;5.10;;;;;;;6.19;100.00;101463.66;6024593;23;20082;-72
2022/06/02 03:00:00;;;;;;;3.80;3.70;;;;;;;6.57;100.00;101534.06;5990931;23;20023;-73
2022/06/02 03:02:48;;;;;;;3.83;3.63;;;;;;;6.35;100.00;101508.50;6023395;23;20011;-73
2022/06/02 03:05:16;;;;;;;4.40;4.20;;;;;;;6.38;100.00;101526.66;6003050;23;20090;-70
2022/06/02 03:07:42;;;;;;;4.05;3.80;;;;;;;5.97;100.00;101459.75;6030818;23;20030;-74
2022/06/02 03:10:21;;;;;;;5.55;5.35;;;;;;;6.47;100.00;101543.84;5996782;23;20472;-70
2022/06/02 03:13:23;;;;;;;3.45;3.35;;;;;;;6.32;100.00;101529.41;6036808;23;20086;-71
2022/06/02 03:15:57;;;;;;;3.72;3.53;;;;;;;6.48;100.00;101555.16;5993246;23;20019;-73
2022/06/02 03:18:46;;;;;;;3.50;3.40;;;;;;;6.46;100.00;101557.78;6030935;23;20045;-70
2022/06/02 03:21:21;;;;;;;5.32;5.13;;;;;;;6.47;100.00;101564.69;6006026;23;20469;-72
2022/06/02 03:24:07;;;;;;;4.20;4.00;;;;;;;6.47;100.00;101556.03;6039544;23;20033;-70
2022/06/02 03:26:43;;;;;;;4.30;4.10;;;;;;;6.52;100.00;101559.41;6007296;23;20031;-72
2022/06/02 03:29:28;;;;;;;5.75;5.45;;;;;;;6.29;100.00;101516.41;6025865;23;20374;-68
2022/06/02 03:32:15;;;;;;;4.63;4.38;;;;;;;6.60;100.00;101565.31;5995295;23;21466;-71
2022/06/02 03:35:06;;;;;;;3.50;3.40;;;;;;;6.63;100.00;101570.44;6028022;23;20026;-71
2022/06/02 03:38:04;;;;;;;4.18;3.97;;;;;;;6.66;100.00;101559.13;6001610;23;20043;-66
2022/06/02 03:40:44;;;;;;;3.80;3.70;;;;;;;6.62;100.00;101550.50;6025164;23;20335;-66
2022/06/02 03:43:13;;;;;;;5.38;5.13;;;;;;;6.70;100.00;101566.81;5994035;23;20048;-66
2022/06/02 03:45:49;;;;;;;3.70;3.60;;;;;;;6.72;100.00;101572.00;6028598;23;20554;-69
2022/06/02 03:48:29;;;;;;;3.70;3.60;;;;;;;6.71;100.00;101573.75;5987414;23;20047;-70
2022/06/02 03:51:16;;;;;;;3.88;3.72;;;;;;;6.24;100.00;101510.47;6023108;23;20133;-67
2022/06/02 03:53:54;;;;;;;3.90;3.60;;;;;;;6.61;100.00;101581.81;5999946;23;20042;-71
2022/06/02 03:56:43;;;;;;;3.50;3.40;;;;;;;6.58;100.00;101582.75;6025017;23;20098;-65
2022/06/02 03:59:30;;;;;;;6.10;5.80;;;;;;;6.61;100.00;101585.28;5988880;23;20281;-70
2022/06/02 04:02:32;;;;;;;5.30;5.05;;;;;;;6.69;100.00;101585.13;6028904;23;20018;-71
2022/06/02 04:05:14;;;;;;;4.72;4.53;;;;;;;6.58;100.00;101565.34;5960599;23;20050;-72
2022/06/02 04:08:08;;;;;;;4.00;3.80;;;;;;;6.88;100.00;101588.19;6022069;23;20023;-66
2022/06/02 04:10:54;;;;;;;3.90;3.70;;;;;;;6.74;100.00;101563.25;6002919;23;20501;-68
2022/06/02 04:13:39;;;;;;;3.75;3.60;;;;;;;7.07;100.00;101602.50;5965731;23;20024;-70
2022/06/02 04:16:47;;;;;;;4.60;4.40;;;;;;;7.27;100.00;101602.03;5993923;23;20090;-65
2022/06/02 04:22:47;;;;;;;3.65;3.55;;;;;;;7.66;100.00;101604.59;5994025;23;20015;-68
2022/06/02 04:25:27;;;;;;;3.50;3.40;;;;;;;7.72;100.00;101604.44;6019329;23;20053;-71
2022/06/02 04:28:06;;;;;;;3.88;3.70;;;;;;;7.35;100.00;101542.66;5984050;23;20011;-66
2022/06/02 04:30:54;;;;;;;3.95;3.65;;;;;;;7.83;100.00;101608.50;6022484;23;20030;-67
2022/06/02 04:33:35;;;;;;;3.70;3.60;;;;;;;7.92;100.00;101614.38;5992231;23;20326;-67
2022/06/02 04:36:34;;;;;;;5.75;5.45;;;;;;;8.22;100.00;101622.28;6049363;23;20129;-70
2022/06/02 04:39:13;;;;;;;6.22;5.72;;;;;;;9.03;100.00;101571.09;6022170;23;20273;-65
2022/06/02 04:41:56;;;;;;;4.82;4.63;;;;;;;10.61;100.00;101615.47;6059835;23;20567;-69
2022/06/02 04:44:53;;;;;;;4.20;4.00;;;;;;;11.80;91.17;101614.22;6016499;23;20051;-67
2022/06/02 04:47:34;;;;;;;6.18;5.88;;;;;;;12.55;84.13;101594.28;6041501;23;21077;-65
2022/06/02 04:50:00;;;;;;;5.10;4.90;;;;;;;13.48;79.66;101627.66;6059561;23;20026;-70
2022/06/02 04:52:44;;;;;;;5.13;4.82;;;;;;;13.98;75.21;101631.31;6052005;23;20034;-70
2022/06/02 04:55:23;;;;;;;6.20;5.90;;;;;;;14.30;72.97;101612.00;6016489;23;20023;-66
2022/06/02 04:58:08;;;;;;;5.50;5.20;;;;;;;14.63;71.09;101634.91;6052068;23;20300;-69
2022/06/02 05:00:45;;;;;;;4.97;4.70;;;;;;;14.58;69.28;101617.63;6006160;23;20374;-70
2022/06/02 05:03:45;;;;;;;6.30;6.00;;;;;;;14.52;69.80;101631.97;6046419;23;20089;-66
2022/06/02 05:06:27;;;;;;;7.00;6.50;;;;;;;14.01;70.85;101633.78;6032863;23;20113;-66
2022/06/02 05:09:02;;;;;;;4.95;4.70;;;;;;;14.68;70.68;101632.88;6035529;23;20028;-66
2022/06/02 05:11:55;;;;;;;5.60;5.30;;;;;;;15.01;67.58;101637.22;6024060;23;20010;-66
2022/06/02 05:14:33;;;;;;;5.25;4.95;;;;;;;15.54;67.59;101640.41;6052126;23;20527;-66
2022/06/02 05:17:37;;;;;;;6.45;6.00;;;;;;;15.65;63.84;101603.59;6026998;23;20475;-66
2022/06/02 05:20:22;;;;;;;6.50;6.20;;;;;;;16.32;63.85;101638.44;6052200;23;20038;-66
2022/06/02 05:23:07;;;;;;;6.20;5.75;;;;;;;16.78;63.13;101640.03;6028948;23;20032;-71
2022/06/02 05:26:05;;;;;;;6.07;5.68;;;;;;;16.81;60.28;101660.19;6022765;23;20021;-67
2022/06/02 05:28:59;;;;;;;5.55;5.25;;;;;;;17.32;58.99;101637.44;5986637;23;20500;-66
2022/06/02 05:31:54;;;;;;;5.80;5.50;;;;;;;17.77;57.85;101633.63;6048854;23;20029;-66
2022/06/02 05:34:55;;;;;;;5.82;5.50;;;;;;;17.57;56.13;101634.97;6015547;23;20014;-66
2022/06/02 05:38:01;;;;;;;5.78;5.47;;;;;;;17.48;55.67;101637.28;6026124;23;20014;-67
2022/06/02 05:40:38;;;;;;;5.80;5.50;;;;;;;17.85;55.45;101640.13;6054542;23;20167;-66
2022/06/02 05:43:28;;;;;;;7.53;6.97;;;;;;;18.06;54.56;101640.50;6069349;23;20022;-69
2022/06/02 05:46:24;;;;;;;6.55;6.18;;;;;;;17.17;55.51;101642.88;6049562;23;20457;-69
2022/06/02 05:49:16;;;;;;;6.40;6.00;;;;;;;17.08;55.28;101636.38;6038457;23;20440;-70
2022/06/02 05:52:26;;;;;;;6.28;5.88;;;;;;;17.36;54.91;101638.09;6039638;23;20706;-66
2022/06/02 05:55:31;;;;;;;7.25;6.60;;;;;;;17.60;54.91;101645.34;6006632;23;20102;-66
2022/06/02 05:58:03;;;;;;;7.28;6.80;;;;;;;18.03;54.34;101643.34;6039737;23;20030;-66
2022/06/02 06:00:42;;;;;;;6.20;5.85;;;;;;;17.45;54.59;101645.44;6046569;23;20033;-66
2022/06/02 06:03:34;;;;;;;8.20;7.70;;;;;;;17.47;54.93;101616.97;6015315;23;20046;-69
2022/06/02 06:06:23;;;;;;;7.30;6.90;;;;;;;18.29;53.33;101652.16;6048128;23;20030;-65
2022/06/02 06:09:03;;;;;;;7.03;6.43;;;;;;;18.45;52.46;101648.44;6040879;23;20026;-65
2022/06/02 06:11:53;;;;;;;6.15;5.85;;;;;;;18.32;51.53;101624.53;6042357;23;20061;-66
2022/06/02 06:14:46;;;;;;;6.43;6.13;;;;;;;18.52;52.28;101660.31;6044068;23;20034;-67
2022/06/02 06:17:29;;;;;;;7.20;6.80;;;;;;;18.62;51.67;101666.72;6020117;23;20023;-65
2022/06/02 06:20:07;;;;;;;;;;;;;;;18.54;52.79;101669.03;6049235;23;20288;-68
2022/06/02 06:23:10;;;;;;;7.13;6.63;;;;;;;15.71;56.95;101538.88;6025000;23;20053;-65
2022/06/02 06:25:48;;;;;;;5.93;5.63;;;;;;;14.54;61.13;101435.47;6016109;23;20370;-65
2022/06/02 06:28:20;;;;;;;6.00;5.70;;;;;;;16.17;60.95;101678.25;6040278;23;20014;-67
2022/06/02 06:31:34;;;;;;;6.18;5.88;;;;;;;15.94;62.55;101668.06;6022067;23;20047;-65
2022/06/02 06:34:16;;;;;;;7.72;7.32;;;;;;;15.91;63.26;101670.88;5972569;23;20075;-67
2022/06/02 06:37:11;;;;;;;6.07;5.65;;;;;;;15.96;61.63;101630.94;5994390;23;20027;-69
2022/06/02 06:40:07;;;;;;;6.20;5.80;;;;;;;16.25;61.74;101676.81;5990258;23;20027;-65
2022/06/02 06:42:45;;;;;;;7.05;6.40;;;;;;;15.91;62.81;101689.41;5993627;23;20390;-65
2022/06/02 06:45:22;;;;;;;7.30;6.90;;;;;;;15.62;64.47;101682.31;5992386;23;20271;-66
2022/06/02 06:47:57;;;;;;;6.80;6.30;;;;;;;15.30;65.26;101685.84;6020694;23;20505;-65
2022/06/02 06:50:40;;;;;;;6.97;6.35;;;;;;;15.39;66.22;101686.25;5990808;23;20038;-65
2022/06/02 06:53:17;;;;;;;8.90;8.18;;;;;;;15.63;65.16;101684.84;6020377;23;20041;-65
2022/06/02 06:56:12;;;;;;;6.13;5.60;;;;;;;14.63;64.80;101529.22;6028387;23;20015;-69
2022/06/02 06:58:58;;;;;;;7.15;6.53;;;;;;;15.39;65.23;101702.97;6002675;23;20089;-68
2022/06/02 07:01:34;;;;;;;5.53;5.22;;;;;;;15.54;65.45;101693.34;5992458;23;21088;-65
2022/06/02 07:04:06;;;;;;;7.90;7.38;;;;;;;15.87;65.29;101698.47;6009508;23;20034;-65
2022/06/02 07:07:05;;;;;;;6.45;6.15;;;;;;;15.90;65.01;101700.13;5997159;23;20023;-65
2022/06/02 07:09:54;;;;;;;5.82;5.53;;;;;;;15.81;65.07;101703.28;5979416;23;20108;-67
2022/06/02 07:15:28;;;;;;;6.32;6.00;;;;;;;15.46;65.93;101701.72;6027246;23;20023;-65
2022/06/02 07:18:00;;;;;;;6.93;6.35;;;;;;;15.35;68.49;101707.63;5995114;23;20415;-65
2022/06/02 07:20:56;;;;;;;6.63;6.18;;;;;;;14.41;66.73;101528.69;6033160;23;20081;-65
2022/06/02 07:23:51;;;;;;;5.28;5.03;;;;;;;15.35;66.90;101712.03;5968655;23;20030;-65
2022/06/02 07:26:39;;;;;;;7.25;6.55;;;;;;;15.54;67.10;101695.97;6008969;23;20461;-65
2022/06/02 07:29:17;;;;;;;7.68;7.22;;;;;;;15.76;66.65;101698.28;6000176;23;20051;-65
2022/06/02 07:31:57;;;;;;;6.30;5.78;;;;;;;15.86;66.84;101702.09;6003621;23;20248;-65
2022/06/02 07:34:38;;;;;;;5.93;5.35;;;;;;;15.95;64.47;101701.53;6012380;23;20038;-68
2022/06/02 07:37:26;;;;;;;7.10;6.70;;;;;;;15.42;66.90;101644.63;6026312;23;20361;-65
2022/06/02 07:40:06;;;;;;;6.72;6.07;;;;;;;16.01;65.58;101687.09;6054290;23;20026;-64
2022/06/02 07:43:08;;;;;;;6.10;5.70;;;;;;;16.19;64.48;101650.72;6052917;23;20357;-65
2022/06/02 07:45:46;;;;;;;6.20;5.80;;;;;;;16.59;63.97;101692.47;6020628;23;20047;-65
2022/06/02 07:48:27;;;;;;;6.95;6.55;;;;;;;16.49;62.69;101669.16;6050863;23;20110;-69
2022/06/02 07:51:17;;;;;;;6.25;5.95;;;;;;;15.66;63.76;101538.31;6047130;23;20026;-65
2022/06/02 07:54:05;;;;;;;5.75;5.45;;;;;;;16.79;62.82;101697.38;6012923;23;20030;-65
2022/06/02 07:56:46;;;;;;;5.90;5.50;;;;;;;17.00;60.50;101700.53;6036922;23;20030;-65
2022/06/02 07:59:34;;;;;;;5.97;5.55;;;;;;;16.51;59.42;101674.38;5993745;23;20038;-64
2022/06/02 08:02:22;;;;;;;7.95;7.45;;;;;;;16.64;56.82;101699.19;6037936;23;20022;-66
2022/06/02 08:05:12;;;;;;;6.22;5.82;;;;;;;16.68;56.46;101706.00;6050313;23;20038;-67
2022/06/02 08:07:49;;;;;;;6.95;6.45;;;;;;;17.25;59.40;101709.56;6054033;23;20275;-69
2022/06/02 08:10:55;;;;;;;6.95;6.25;;;;;;;17.37;56.19;101700.81;6041542;23;20096;-69
2022/06/02 08:13:39;;;;;;;6.53;6.07;;;;;;;17.28;58.42;101702.25;6011818;23;20006;-68
2022/06/02 08:16:22;;;;;;;8.57;7.88;;;;;;;16.94;59.93;101695.63;6052418;23;20021;-67
2022/06/02 08:19:07;;;;;;;6.45;5.95;;;;;;;16.49;59.23;101700.13;6056207;23;20090;-67
2022/06/02 08:21:42;;;;;;;5.60;5.28;;;;;;;16.88;56.38;101709.25;6046384;23;20203;-65
2022/06/02 08:24:25;;;;;;;8.13;7.65;;;;;;;16.88;56.80;101698.66;6039939;23;20490;-65
2022/06/02 08:27:30;;;;;;;6.30;6.00;;;;;;;16.91;56.96;101715.19;6019905;23;20070;-65
2022/06/02 08:30:18;;;;;;;6.65;6.35;;;;;;;16.62;54.53;101702.88;6047646;23;20423;-64
2022/06/02 08:33:04;;;;;;;5.15;4.95;;;;;;;16.56;49.90;101645.81;6028262;23;20027;-65
2022/06/02 08:36:08;;;;;;;5.80;5.50;;;;;;;17.04;49.18;101704.69;6042418;23;20089;-67
2022/06/02 08:39:12;;;;;;;6.30;5.90;;;;;;;17.19;48.63;101704.66;6023709;23;20016;-65
2022/06/02 08:41:57;;;;;;;5.40;5.15;;;;;;;17.43;48.19;101705.72;6048537;23;20034;-65
2022/06/02 08:45:01;;;;;;;5.35;5.15;;;;;;;17.25;47.04;101705.09;6013839;23;20030;-65
2022/06/02 08:47:33;;;;;;;6.13;5.72;;;;;;;17.30;46.94;101700.38;6049175;23;20081;-65
2022/06/02 08:50:14;;;;;;;7.78;7.38;;;;;;;16.93;47.35;101670.03;6065281;23;20086;-68
2022/06/02 08:53:26;;;;;;;6.57;6.13;;;;;;;17.59;46.69;101702.91;6043069;23;20435;-64
2022/06/02 08:56:17;;;;;;;6.18;5.85;;;;;;;17.87;46.92;101711.75;6018271;23;20023;-69
2022/06/02 08:59:02;;;;;;;6.20;5.70;;;;;;;18.29;45.19;101721.25;6028220;23;20389;-65
2022/06/02 09:01:28;;;;;;;5.70;5.40;;;;;;;18.23;40.15;101727.00;6029508;23;20074;-65
2022/06/02 09:05:00;;;;;;;6.63;6.32;;;;;;;17.81;39.58;101730.72;6036911;23;20041;-65
2022/06/02 09:07:39;;;;;;;;;;;;;;;18.06;41.92;101732.59;5937392;24;20008;-67
2022/06/02 09:10:38;;;;;;;6.30;5.90;;;;;;;18.26;44.43;101731.25;5933525;24;20504;-65
2022/06/02 09:13:36;;;;;;;7.20;6.80;;;;;;;18.10;46.52;101734.09;6012818;23;20031;-65
2022/06/02 09:16:34;;;;;;;7.50;7.10;;;;;;;18.06;47.38;101736.13;6051599;23;20104;-66
2022/06/02 09:19:32;;;;;;;7.88;7.45;;;;;;;18.23;46.56;101732.31;6045182;23;20099;-65
2022/06/02 09:22:02;;;;;;;7.05;6.60;;;;;;;18.27;48.88;101728.47;6021128;23;19999;-65
2022/06/02 09:25:07;;;;;;;6.20;5.85;;;;;;;18.92;48.11;101732.00;6017889;23;20631;-65
2022/06/02 09:27:55;;;;;;;6.05;5.65;;;;;;;19.28;43.23;101732.97;6042185;23;20109;-65
2022/06/02 09:30:52;;;;;;;6.40;6.00;;;;;;;18.13;42.99;101604.56;6018754;23;20018;-67
2022/06/02 09:33:59;;;;;;;5.70;5.40;;;;;;;19.01;44.03;101725.19;6015590;23;20027;-65
2022/06/02 09:36:43;;;;;;;5.65;5.35;;;;;;;19.17;45.27;101732.94;6041820;23;20061;-70
2022/06/02 09:39:38;;;;;;;7.13;6.72;;;;;;;19.29;44.37;101727.56;6015967;23;20094;-70
2022/06/02 09:42:29;;;;;;;7.40;6.90;;;;;;;18.63;44.21;101731.38;6048192;23;20028;-65
2022/06/02 09:45:14;;;;;;;6.03;5.63;;;;;;;18.43;43.33;101730.09;6021135;23;20084;-66
2022/06/02 09:48:21;;;;;;;5.88;5.57;;;;;;;18.44;43.48;101737.09;6046663;23;20207;-67
2022/06/02 09:50:56;;;;;;;6.05;5.65;;;;;;;18.59;42.75;101730.72;6033155;23;20022;-69
2022/06/02 09:53:35;;;;;;;6.10;5.70;;;;;;;18.72;43.26;101728.94;6007799;23;20038;-67
2022/06/02 09:56:31;;;;;;;7.50;7.07;;;;;;;19.21;43.48;101721.09;6013840;23;20023;-70
2022/06/02 09:59:24;;;;;;;6.68;6.38;;;;;;;19.64;42.40;101731.25;6019430;23;20487;-65
2022/06/02 10:01:59;;;;;;;5.77;5.47;;;;;;;19.15;41.48;101721.53;6019470;23;20098;-64
2022/06/02 10:04:52;;;;;;;6.10;5.80;;;;;;;19.16;40.93;101715.25;6045783;23;20038;-70
2022/06/02 10:07:40;;;;;;;5.40;5.20;;;;;;;18.93;41.54;101717.75;6026149;23;21286;-69
2022/06/02 10:10:24;;;;;;;7.18;6.78;;;;;;;18.77;41.40;101699.34;6048134;23;20097;-66
2022/06/02 10:12:56;;;;;;;8.27;7.60;;;;;;;19.17;42.46;101711.63;6043610;23;20238;-69
2022/06/02 10:15:41;;;;;;;5.82;5.43;;;;;;;19.33;41.24;101709.56;6018398;23;20026;-69
2022/06/02 10:18:40;;;;;;;7.63;7.13;;;;;;;19.60;41.21;101717.31;6016016;23;20026;-65
2022/06/02 10:21:27;;;;;;;6.95;6.55;;;;;;;19.49;40.80;101677.34;6043127;23;20646;-65
2022/06/02 10:24:27;;;;;;;7.53;7.15;;;;;;;19.66;41.82;101706.19;6019111;23;20501;-65
2022/06/02 10:27:12;;;;;;;6.22;5.93;;;;;;;19.97;40.44;101703.94;6051320;23;20091;-65
2022/06/02 10:29:55;;;;;;;6.13;5.75;;;;;;;19.32;42.35;101708.72;6030632;23;20089;-65
2022/06/02 10:32:46;;;;;;;6.35;5.88;;;;;;;18.88;42.52;101706.56;6041267;23;20041;-68
2022/06/02 10:35:40;;;;;;;6.22;5.93;;;;;;;18.64;42.06;101701.16;6022651;23;20684;-67
2022/06/02 10:38:23;;;;;;;7.25;6.85;;;;;;;19.28;41.37;101707.25;6018262;23;20099;-68
2022/06/02 10:41:23;;;;;;;5.55;5.25;;;;;;;19.53;41.10;101705.41;6004822;23;20067;-66
2022/06/02 10:43:52;;;;;;;5.70;5.40;;;;;;;19.60;39.98;101704.00;6023960;23;20129;-65
2022/06/02 10:46:45;;;;;;;6.55;6.15;;;;;;;19.06;40.41;101691.97;6025451;23;20130;-69
2022/06/02 10:49:19;;;;;;;6.90;6.60;;;;;;;18.96;40.63;101664.31;5978421;23;20043;-68
2022/06/02 10:52:04;;;;;;;5.95;5.65;;;;;;;19.32;40.35;101687.41;6000423;23;20018;-68
2022/06/02 10:55:07;;;;;;;5.60;5.30;;;;;;;19.35;40.09;101686.34;5973452;23;20022;-68
2022/06/02 10:58:01;;;;;;;5.85;5.55;;;;;;;18.57;40.51;101535.09;6003460;23;20011;-68
2022/06/02 11:01:08;;;;;;;5.80;5.50;;;;;;;19.44;40.26;101660.84;6008287;23;20038;-68
2022/06/02 11:03:53;;;;;;;6.00;5.70;;;;;;;19.53;41.55;101676.97;5995780;23;20086;-69
2022/06/02 11:06:46;;;;;;;5.90;5.60;;;;;;;19.66;40.58;101665.41;6025951;23;20018;-69
2022/06/02 11:09:37;;;;;;;6.70;6.40;;;;;;;19.53;39.46;101689.44;5993835;23;20914;-69
2022/06/02 11:12:38;;;;;;;7.80;7.30;;;;;;;18.91;40.32;101690.41;6017350;23;20097;-69
2022/06/02 11:15:20;;;;;;;6.80;6.47;;;;;;;19.57;39.32;101695.41;5990424;23;20166;-66
2022/06/02 11:18:06;;;;;;;6.00;5.70;;;;;;;18.95;39.08;101550.91;6027542;23;20069;-65
2022/06/02 11:21:10;;;;;;;5.68;5.35;;;;;;;20.39;38.24;101682.09;5991590;23;20039;-69
2022/06/02 11:23:48;;;;;;;6.40;6.00;;;;;;;19.42;38.99;101679.56;6008699;23;20364;-69
2022/06/02 11:26:47;;;;;;;6.20;5.90;;;;;;;19.71;38.45;101673.94;5982511;23;20467;-66
2022/06/02 11:29:19;;;;;;;6.20;5.90;;;;;;;20.20;39.00;101672.00;6022544;23;21025;-68
2022/06/02 11:32:21;;;;;;;6.15;5.78;;;;;;;20.47;39.25;101659.19;5990090;23;20153;-68
2022/06/02 11:35:03;;;;;;;5.90;5.60;;;;;;;20.24;37.46;101641.47;6019045;23;20029;-69
2022/06/02 11:37:45;;;;;;;5.80;5.50;;;;;;;20.78;36.71;101661.25;6022933;23;20027;-68
2022/06/02 11:41:06;;;;;;;5.80;5.50;;;;;;;21.14;36.04;101657.44;6017673;23;20125;-69
2022/06/02 11:43:48;;;;;;;5.90;5.53;;;;;;;20.02;35.74;101644.94;6022075;23;20030;-65
2022/06/02 11:46:33;;;;;;;6.13;5.82;;;;;;;20.06;35.55;101654.41;6036087;23;20215;-70
2022/06/02 11:49:30;;;;;;;6.47;6.18;;;;;;;19.87;35.72;101618.53;6031661;23;20022;-70
2022/06/02 11:52:34;;;;;;;7.20;6.70;;;;;;;20.74;35.24;101649.97;6047629;23;20014;-71
2022/06/02 11:55:32;;;;;;;6.72;6.43;;;;;;;21.17;35.88;101638.50;6012665;23;20022;-68
2022/06/02 11:58:17;;;;;;;7.18;6.78;;;;;;;20.08;36.96;101632.00;6034052;23;20738;-71
2022/06/02 12:01:24;;;;;;;6.63;6.05;;;;;;;19.80;36.89;101632.44;6022577;23;20021;-67
2022/06/02 12:04:24;;;;;;;5.70;5.47;;;;;;;19.60;37.43;101628.59;6040533;23;20139;-65
2022/06/02 12:06:52;;;;;;;5.57;5.20;;;;;;;19.67;37.23;101630.69;6024008;23;20486;-65
2022/06/02 12:10:23;;;;;;;6.25;5.95;;;;;;;20.49;37.81;101621.75;6051108;23;20030;-68
2022/06/02 12:13:01;;;;;;;5.65;5.35;;;;;;;20.72;35.31;101620.75;5903312;24;20141;-70
2022/06/02 12:16:05;;;;;;;5.70;5.40;;;;;;;20.92;35.81;101618.28;6025455;23;20089;-65
2022/06/02 12:18:41;;;;;;;5.55;5.25;;;;;;;20.69;36.75;101612.16;6042381;23;21145;-68
2022/06/02 12:21:44;;;;;;;7.00;6.68;;;;;;;20.49;35.80;101603.91;6021926;23;20089;-65
2022/06/02 12:24:13;;;;;;;7.95;7.45;;;;;;;20.98;35.32;101608.94;6012486;23;20246;-65
2022/06/02 12:27:07;;;;;;;5.30;5.10;;;;;;;20.71;36.25;101611.06;6036997;23;20275;-66
2022/06/02 12:29:58;;;;;;;6.40;6.00;;;;;;;21.04;35.57;101606.63;6023893;23;20098;-66
2022/06/02 12:33:07;;;;;;;5.85;5.55;;;;;;;20.77;35.64;101601.72;6046459;23;20222;-65
2022/06/02 12:35:54;;;;;;;6.03;5.72;;;;;;;20.87;36.18;101593.81;6014715;23;20025;-65
2022/06/02 12:38:41;;;;;;;6.05;5.75;;;;;;;20.82;36.21;101596.00;5991855;23;20041;-66
2022/06/02 12:41:25;;;;;;;7.13;6.78;;;;;;;21.23;35.40;101592.59;6029224;23;20053;-65
2022/06/02 12:44:14;;;;;;;5.82;5.53;;;;;;;21.10;35.52;101600.75;6050472;23;20100;-67
2022/06/02 12:46:49;;;;;;;6.15;5.85;;;;;;;20.67;35.54;101596.28;6053860;23;20018;-65
2022/06/02 12:49:47;;;;;;;5.60;5.35;;;;;;;20.08;37.78;101583.19;6026583;23;20065;-66
2022/06/02 12:52:39;;;;;;;6.10;5.80;;;;;;;20.02;35.78;101463.75;6042642;23;20172;-67
2022/06/02 12:55:36;;;;;;;8.93;8.48;;;;;;;21.05;35.46;101600.31;6010810;23;20043;-67
2022/06/02 12:58:38;;;;;;;7.47;7.10;;;;;;;21.55;34.82;101565.06;5990108;23;20022;-67
2022/06/02 13:01:17;;;;;;;7.30;6.90;;;;;;;22.08;35.55;101586.28;6025876;23;20022;-70
2022/06/02 13:04:34;;;;;;;5.90;5.60;;;;;;;22.38;33.40;101597.16;6049639;23;20006;-66
2022/06/02 13:07:28;;;;;;;7.05;6.75;;;;;;;21.32;35.04;101532.25;6022647;23;20106;-66
2022/06/02 13:10:13;;;;;;;6.15;5.85;;;;;;;20.54;35.96;101446.19;6028980;23;20015;-71